createdAt,value
2023-05-05T00:01:09.256Z,100917.09
2023-05-05T00:03:36.808Z,100910.69
2023-05-05T00:06:07.080Z,100905.06
2023-05-05T00:08:33.959Z,100906.63
2023-05-05T00:11:00.734Z,100921.91
2023-05-05T00:13:27.242Z,100913.44
2023-05-05T00:15:54.542Z,100909.16
2023-05-05T00:18:21.387Z,100908.59
2023-05-05T00:20:48.065Z,100913.13
2023-05-05T00:23:16.109Z,100908.16
2023-05-05T00:25:42.740Z,100900.94
2023-05-05T00:28:10.265Z,100898.72
2023-05-05T00:30:37.453Z,100891.16
2023-05-05T00:33:04.387Z,100899.22
2023-05-05T00:35:31.118Z,100902.59
2023-05-05T00:37:58.530Z,100901.34
2023-05-05T00:40:25.363Z,100880.91
2023-05-05T00:42:52.123Z,100894.63
2023-05-05T00:45:19.738Z,100890.25
2023-05-05T00:47:52.262Z,100880.03
2023-05-05T00:50:24.598Z,100885.03
2023-05-05T00:52:53.766Z,100875.47
2023-05-05T00:55:22.090Z,100878.47
2023-05-05T00:57:49.303Z,100872.00
2023-05-05T01:00:16.725Z,100869.06
2023-05-05T01:02:44.194Z,100873.09
2023-05-05T01:05:13.172Z,100866.78
2023-05-05T01:07:53.425Z,100866.81
2023-05-05T01:10:46.579Z,100863.94
2023-05-05T01:13:22.631Z,100852.34
2023-05-05T01:16:04.193Z,100860.78
2023-05-05T01:18:37.380Z,100852.75
2023-05-05T01:21:15.253Z,100851.81
2023-05-05T01:23:54.606Z,100852.97
2023-05-05T01:26:34.672Z,100850.13
2023-05-05T01:29:20.339Z,100836.44
2023-05-05T01:32:15.015Z,100835.91
2023-05-05T01:35:00.554Z,100834.91
2023-05-05T01:37:32.183Z,100840.69
2023-05-05T01:40:04.808Z,100839.69
2023-05-05T01:42:34.072Z,100828.53
2023-05-05T01:45:05.443Z,100830.78
2023-05-05T01:47:32.440Z,100829.56
2023-05-05T01:50:00.175Z,100830.91
2023-05-05T01:52:27.973Z,100827.81
2023-05-05T01:54:55.678Z,100834.06
2023-05-05T01:57:26.442Z,100832.97
2023-05-05T01:59:53.874Z,100833.19
2023-05-05T02:02:22.575Z,100827.63
2023-05-05T02:04:51.785Z,100822.09
2023-05-05T02:07:20.003Z,100821.81
2023-05-05T02:09:47.914Z,100825.09
2023-05-05T02:12:16.430Z,100825.81
2023-05-05T02:14:44.577Z,100820.53
2023-05-05T02:17:13.373Z,100816.03
2023-05-05T02:19:44.027Z,100816.56
2023-05-05T02:22:12.148Z,100810.88
2023-05-05T02:24:39.234Z,100813.59
2023-05-05T02:27:07.338Z,100820.28
2023-05-05T02:29:57.647Z,100806.34
2023-05-05T02:32:34.274Z,100812.50
2023-05-05T02:35:09.935Z,100818.59
2023-05-05T02:37:43.787Z,100814.59
2023-05-05T02:40:15.159Z,100811.66
2023-05-05T02:42:46.471Z,100806.50
2023-05-05T02:45:19.861Z,100807.72
2023-05-05T02:47:48.686Z,100809.22
2023-05-05T02:50:15.729Z,100805.63
2023-05-05T02:52:49.678Z,100804.28
2023-05-05T02:55:19.216Z,100802.00
2023-05-05T02:58:03.509Z,100806.28
2023-05-05T03:00:47.693Z,100801.06
2023-05-05T03:03:25.889Z,100799.34
2023-05-05T03:06:00.542Z,100802.16
2023-05-05T03:08:31.428Z,100798.44
2023-05-05T03:11:07.921Z,100810.97
2023-05-05T03:13:40.453Z,100793.59
2023-05-05T03:16:08.094Z,100800.44
2023-05-05T03:18:37.837Z,100799.75
2023-05-05T03:21:08.680Z,100808.72
2023-05-05T03:23:39.684Z,100800.88
2023-05-05T03:26:11.856Z,100782.53
2023-05-05T03:28:42.289Z,100778.09
2023-05-05T03:31:18.212Z,100779.88
2023-05-05T03:33:49.315Z,100785.38
2023-05-05T03:36:15.943Z,100780.25
2023-05-05T03:38:42.816Z,100785.66
2023-05-05T03:41:09.512Z,100777.22
2023-05-05T03:43:36.514Z,100786.47
2023-05-05T03:46:03.598Z,100788.28
2023-05-05T03:48:30.832Z,100791.50
2023-05-05T03:50:57.580Z,100797.69
2023-05-05T03:53:26.601Z,100799.69
2023-05-05T03:55:54.268Z,100806.63
2023-05-05T03:58:20.853Z,100806.31
2023-05-05T04:00:48.163Z,100801.78
2023-05-05T04:03:16.920Z,100796.94
2023-05-05T04:05:43.616Z,100795.94
2023-05-05T04:08:10.539Z,100787.53
2023-05-05T04:10:37.105Z,100783.66
2023-05-05T04:13:04.450Z,100780.31
2023-05-05T04:15:32.545Z,100778.97
2023-05-05T04:17:59.744Z,100784.91
2023-05-05T04:20:26.569Z,100779.44
2023-05-05T04:22:54.471Z,100776.56
2023-05-05T04:25:22.141Z,100768.84
2023-05-05T04:27:49.492Z,100775.53
2023-05-05T04:30:17.469Z,100776.31
2023-05-05T04:32:45.081Z,100786.41
2023-05-05T04:35:11.802Z,100786.78
2023-05-05T04:37:38.986Z,100793.75
2023-05-05T04:40:06.576Z,100799.28
2023-05-05T04:42:35.010Z,100793.09
2023-05-05T04:45:02.427Z,100806.22
2023-05-05T04:47:30.221Z,100805.81
2023-05-05T04:49:56.997Z,100806.38
2023-05-05T04:52:23.544Z,100815.94
2023-05-05T04:54:51.232Z,100809.69
2023-05-05T04:57:17.810Z,100814.38
2023-05-05T04:59:44.564Z,100811.00
2023-05-05T05:02:11.161Z,100819.88
2023-05-05T05:04:37.720Z,100800.97
2023-05-05T05:07:04.330Z,100806.41
2023-05-05T05:09:31.341Z,100809.44
2023-05-05T05:12:02.925Z,100800.38
2023-05-05T05:14:30.096Z,100804.88
2023-05-05T05:16:56.636Z,100804.84
2023-05-05T05:19:24.248Z,100796.75
2023-05-05T05:21:51.194Z,100776.94
2023-05-05T05:24:17.852Z,100789.06
2023-05-05T05:26:44.440Z,100786.28
2023-05-05T05:29:11.233Z,100787.94
2023-05-05T05:31:39.673Z,100780.75
2023-05-05T05:34:06.900Z,100777.09
2023-05-05T05:36:33.705Z,100781.28
2023-05-05T05:39:00.482Z,100787.47
2023-05-05T05:41:27.996Z,100780.31
2023-05-05T05:43:54.738Z,100783.09
2023-05-05T05:46:21.614Z,100776.44
2023-05-05T05:48:48.366Z,100772.16
2023-05-05T05:51:14.951Z,100785.00
2023-05-05T05:53:41.704Z,100798.22
2023-05-05T05:56:09.829Z,100807.63
2023-05-05T05:58:36.567Z,100797.72
2023-05-05T06:01:04.887Z,100790.09
2023-05-05T06:03:31.589Z,100798.59
2023-05-05T06:05:59.128Z,100809.13
2023-05-05T06:08:26.774Z,100815.84
2023-05-05T06:10:54.760Z,100816.72
2023-05-05T06:13:21.710Z,100811.53
2023-05-05T06:15:50.512Z,100812.25
2023-05-05T06:18:17.873Z,100824.50
2023-05-05T06:20:44.829Z,100818.34
2023-05-05T06:23:14.210Z,100819.09
2023-05-05T06:25:46.630Z,100827.28
2023-05-05T06:28:13.185Z,100817.63
2023-05-05T06:30:39.733Z,100811.97
2023-05-05T06:33:06.280Z,100818.72
2023-05-05T06:35:33.175Z,100801.00
2023-05-05T06:37:59.672Z,100793.53
2023-05-05T06:40:26.651Z,100815.31
2023-05-05T06:42:53.139Z,100807.44
2023-05-05T06:45:25.982Z,100828.19
2023-05-05T06:47:52.701Z,100830.13
2023-05-05T06:50:19.724Z,100832.38
2023-05-05T06:52:46.748Z,100833.56
2023-05-05T06:55:13.238Z,100822.28
2023-05-05T06:57:40.258Z,100828.69
2023-05-05T07:00:11.129Z,100833.13
2023-05-05T07:02:38.543Z,100840.22
2023-05-05T07:05:05.637Z,100833.28
2023-05-05T07:07:32.532Z,100836.84
2023-05-05T07:09:59.105Z,100826.47
2023-05-05T07:12:25.618Z,100819.28
2023-05-05T07:14:52.802Z,100807.75
2023-05-05T07:17:19.325Z,100832.19
2023-05-05T07:19:45.841Z,100824.59
2023-05-05T07:22:12.406Z,100827.84
2023-05-05T07:24:38.938Z,100817.19
2023-05-05T07:27:06.505Z,100820.94
2023-05-05T07:29:33.089Z,100831.97
2023-05-05T07:32:00.067Z,100825.09
2023-05-05T07:34:27.543Z,100837.34
2023-05-05T07:36:56.670Z,100826.09
2023-05-05T07:39:23.272Z,100825.78
2023-05-05T07:41:49.911Z,100821.44
2023-05-05T07:44:16.637Z,100834.13
2023-05-05T07:46:43.168Z,100834.41
2023-05-05T07:49:09.690Z,100829.88
2023-05-05T07:51:36.823Z,100825.44
2023-05-05T07:54:03.389Z,100821.19
2023-05-05T07:56:30.833Z,100820.97
2023-05-05T07:58:57.391Z,100824.97
2023-05-05T08:01:23.948Z,100839.63
2023-05-05T08:03:50.500Z,100843.97
2023-05-05T08:06:22.029Z,100860.94
2023-05-05T08:08:49.735Z,100870.69
2023-05-05T08:11:17.047Z,100867.34
2023-05-05T08:13:44.105Z,100860.28
2023-05-05T08:16:10.862Z,100865.25
2023-05-05T08:18:38.918Z,100891.41
2023-05-05T08:21:06.512Z,100899.19
2023-05-05T08:23:33.841Z,100902.28
2023-05-05T08:26:00.939Z,100908.94
2023-05-05T08:28:27.893Z,100905.44
2023-05-05T08:30:54.456Z,100914.69
2023-05-05T08:33:21.021Z,100903.56
2023-05-05T08:35:49.118Z,100895.72
2023-05-05T08:38:15.847Z,100883.69
2023-05-05T08:40:43.063Z,100877.88
2023-05-05T08:43:09.597Z,100876.94
2023-05-05T08:45:37.027Z,100865.16
2023-05-05T08:48:05.283Z,100859.06
2023-05-05T08:50:32.770Z,100865.19
2023-05-05T08:53:15.661Z,100853.97
2023-05-05T08:55:53.895Z,100841.97
2023-05-05T08:58:22.802Z,100846.66
2023-05-05T09:00:50.702Z,100832.88
2023-05-05T09:03:18.322Z,100816.97
2023-05-05T09:05:44.981Z,100821.28
2023-05-05T09:08:11.665Z,100816.91
2023-05-05T09:10:42.672Z,100800.69
2023-05-05T09:13:09.318Z,100802.31
2023-05-05T09:15:36.087Z,100781.69
2023-05-05T09:18:03.540Z,100777.75
2023-05-05T09:20:35.261Z,100777.69
2023-05-05T09:23:14.741Z,100786.63
2023-05-05T09:25:46.005Z,100771.88
2023-05-05T09:28:15.083Z,100787.31
2023-05-05T09:30:43.675Z,100786.34
2023-05-05T09:33:10.566Z,100786.50
2023-05-05T09:35:54.104Z,100780.28
2023-05-05T09:38:22.161Z,100794.75
2023-05-05T09:40:54.049Z,100788.31
2023-05-05T09:43:23.329Z,100787.50
2023-05-05T09:45:50.782Z,100809.13
2023-05-05T09:48:31.191Z,100797.25
2023-05-05T09:50:58.498Z,100806.16
2023-05-05T09:53:26.555Z,100797.88
2023-05-05T09:55:56.967Z,100814.22
2023-05-05T09:58:28.087Z,100824.31
2023-05-05T10:00:56.281Z,100831.75
2023-05-05T10:03:23.048Z,100843.59
2023-05-05T10:06:00.878Z,100845.84
2023-05-05T10:08:30.375Z,100865.09
2023-05-05T10:11:01.955Z,100858.81
2023-05-05T10:13:28.793Z,100857.97
2023-05-05T10:15:57.722Z,100851.06
2023-05-05T10:18:26.969Z,100859.38
2023-05-05T10:21:04.043Z,100861.69
2023-05-05T10:23:39.160Z,100863.00
2023-05-05T10:26:07.039Z,100867.94
2023-05-05T10:28:41.485Z,100861.97
2023-05-05T10:31:25.006Z,100847.81
2023-05-05T10:33:59.139Z,100842.75
2023-05-05T10:36:27.852Z,100849.75
2023-05-05T10:38:59.796Z,100827.34
2023-05-05T10:41:26.924Z,100830.75
2023-05-05T10:43:57.351Z,100816.06
2023-05-05T10:46:26.731Z,100821.97
2023-05-05T10:49:23.208Z,100825.41
2023-05-05T10:51:50.059Z,100820.69
2023-05-05T10:54:26.734Z,100816.09
2023-05-05T10:56:53.986Z,100811.97
2023-05-05T10:59:36.126Z,100805.81
2023-05-05T11:02:23.469Z,100805.25
2023-05-05T11:05:17.693Z,100802.31
2023-05-05T11:07:46.082Z,100812.69
2023-05-05T11:10:14.932Z,100810.53
2023-05-05T11:12:54.308Z,100809.19
2023-05-05T11:15:23.809Z,100806.84
2023-05-05T11:17:50.678Z,100792.38
2023-05-05T11:20:17.839Z,100779.78
2023-05-05T11:23:02.901Z,100782.84
2023-05-05T11:25:36.015Z,100797.13
2023-05-05T11:28:14.542Z,100782.44
2023-05-05T11:30:57.585Z,100779.78
2023-05-05T11:33:26.805Z,100774.91
2023-05-05T11:36:05.980Z,100771.78
2023-05-05T11:38:36.235Z,100775.53
2023-05-05T11:41:12.649Z,100765.69
2023-05-05T11:43:40.230Z,100771.66
2023-05-05T11:46:17.005Z,100758.75
2023-05-05T11:48:51.648Z,100763.53
2023-05-05T11:51:18.910Z,100763.25
2023-05-05T11:53:47.775Z,100764.59
2023-05-05T11:56:18.949Z,100770.88
2023-05-05T11:58:46.689Z,100769.00
2023-05-05T12:01:13.691Z,100767.28
2023-05-05T12:03:41.073Z,100782.97
2023-05-05T12:06:08.360Z,100795.50
2023-05-05T12:08:39.154Z,100793.94
2023-05-05T12:11:07.995Z,100777.50
2023-05-05T12:13:35.032Z,100796.97
2023-05-05T12:16:15.612Z,100787.75
2023-05-05T12:18:42.752Z,100779.78
2023-05-05T12:21:18.928Z,100773.91
2023-05-05T12:23:45.868Z,100776.66
2023-05-05T12:26:29.164Z,100770.25
2023-05-05T12:28:57.612Z,100771.53
2023-05-05T12:31:34.822Z,100768.06
2023-05-05T12:34:02.253Z,100777.31
2023-05-05T12:36:30.560Z,100774.06
2023-05-05T12:38:58.136Z,100770.72
2023-05-05T12:41:24.915Z,100778.94
2023-05-05T12:43:56.103Z,100767.88
2023-05-05T12:46:23.357Z,100757.25
2023-05-05T12:49:02.090Z,100759.47
2023-05-05T12:51:28.789Z,100759.88
2023-05-05T12:54:09.916Z,100761.94
2023-05-05T12:56:41.483Z,100752.50
2023-05-05T12:59:10.010Z,100749.50
2023-05-05T13:01:48.425Z,100741.97
2023-05-05T13:04:15.190Z,100749.25
2023-05-05T13:06:43.956Z,100751.22
2023-05-05T13:09:43.111Z,100747.34
2023-05-05T13:12:11.954Z,100738.53
2023-05-05T13:14:40.904Z,100739.84
2023-05-05T13:17:07.694Z,100729.72
2023-05-05T13:19:41.986Z,100736.78
2023-05-05T13:22:09.969Z,100731.56
2023-05-05T13:24:49.639Z,100725.53
2023-05-05T13:27:16.952Z,100719.56
2023-05-05T13:29:43.873Z,100729.94
2023-05-05T13:32:11.151Z,100727.72
2023-05-05T13:34:39.126Z,100720.38
2023-05-05T13:37:06.217Z,100711.78
2023-05-05T13:39:32.768Z,100703.16
2023-05-05T13:41:59.296Z,100698.91
2023-05-05T13:44:25.903Z,100696.59
2023-05-05T13:46:52.516Z,100703.28
2023-05-05T13:49:20.034Z,100700.63
2023-05-05T13:51:47.062Z,100700.88
2023-05-05T13:54:13.756Z,100709.00
2023-05-05T13:56:41.482Z,100696.84
2023-05-05T13:59:08.037Z,100699.16
2023-05-05T14:01:34.889Z,100684.41
2023-05-05T14:04:04.477Z,100680.44
2023-05-05T14:06:33.480Z,100664.41
2023-05-05T14:09:00.050Z,100667.56
2023-05-05T14:11:26.579Z,100646.03
2023-05-05T14:13:53.148Z,100652.34
2023-05-05T14:16:19.974Z,100651.47
2023-05-05T14:18:46.620Z,100646.97
2023-05-05T14:21:13.441Z,100642.72
2023-05-05T14:23:40.031Z,100621.25
2023-05-05T14:26:08.669Z,100628.03
2023-05-05T14:28:35.214Z,100622.09
2023-05-05T14:31:01.774Z,100623.91
2023-05-05T14:33:28.301Z,100615.66
2023-05-05T14:35:55.419Z,100621.22
2023-05-05T14:38:21.998Z,100610.69
2023-05-05T14:40:48.743Z,100599.50
2023-05-05T14:43:15.287Z,100612.13
2023-05-05T14:45:41.981Z,100610.34
2023-05-05T14:48:08.572Z,100609.28
2023-05-05T14:50:35.266Z,100606.91
2023-05-05T14:53:01.934Z,100608.03
2023-05-05T14:55:28.579Z,100598.91
2023-05-05T14:57:55.189Z,100600.84
2023-05-05T15:00:21.901Z,100600.59
2023-05-05T15:02:48.643Z,100601.34
2023-05-05T15:05:15.423Z,100604.16
2023-05-05T15:07:41.981Z,100602.63
2023-05-05T15:10:08.901Z,100596.41
2023-05-05T15:12:35.721Z,100603.16
2023-05-05T15:15:02.263Z,100599.00
2023-05-05T15:17:30.910Z,100598.09
2023-05-05T15:19:57.716Z,100597.22
2023-05-05T15:22:24.252Z,100606.91
2023-05-05T15:24:51.035Z,100600.50
2023-05-05T15:27:18.181Z,100593.09
2023-05-05T15:29:45.149Z,100586.50
2023-05-05T15:32:11.874Z,100580.69
2023-05-05T15:34:38.703Z,100578.78
2023-05-05T15:37:05.380Z,100573.28
2023-05-05T15:39:31.927Z,100574.06
2023-05-05T15:42:00.237Z,100573.19
2023-05-05T15:44:26.789Z,100566.41
2023-05-05T15:46:53.363Z,100568.16
2023-05-05T15:49:19.903Z,100566.66
2023-05-05T15:51:47.620Z,100568.03
2023-05-05T15:54:14.422Z,100565.25
2023-05-05T15:56:40.950Z,100569.94
2023-05-05T15:59:07.722Z,100572.72
2023-05-05T16:01:36.101Z,100582.66
2023-05-05T16:04:03.521Z,100585.13
2023-05-05T16:06:30.169Z,100589.25
2023-05-05T16:08:58.470Z,100592.47
2023-05-05T16:11:26.049Z,100594.78
2023-05-05T16:13:53.554Z,100604.06
2023-05-05T16:16:21.066Z,100602.75
2023-05-05T16:18:47.915Z,100609.09
2023-05-05T16:21:15.049Z,100601.66
2023-05-05T16:23:41.697Z,100607.44
2023-05-05T16:26:08.434Z,100609.47
2023-05-05T16:28:35.001Z,100623.06
2023-05-05T16:31:02.215Z,100627.88
2023-05-05T16:33:29.531Z,100624.31
2023-05-05T16:35:56.277Z,100647.53
2023-05-05T16:38:23.265Z,100651.97
2023-05-05T16:40:53.414Z,100664.34
2023-05-05T16:43:19.930Z,100677.47
2023-05-05T16:45:46.746Z,100681.53
2023-05-05T16:48:14.738Z,100700.88
2023-05-05T16:50:41.388Z,100701.59
2023-05-05T16:53:08.834Z,100723.31
2023-05-05T16:55:35.836Z,100738.34
2023-05-05T16:58:02.349Z,100736.59
2023-05-05T17:00:29.475Z,100765.44
2023-05-05T17:02:56.737Z,100764.25
2023-05-05T17:05:23.399Z,100749.59
2023-05-05T17:07:50.181Z,100756.47
2023-05-05T17:10:16.739Z,100760.63
2023-05-05T17:12:43.869Z,100754.81
2023-05-05T17:15:10.836Z,100763.75
2023-05-05T17:17:40.060Z,100760.53
2023-05-05T17:20:08.602Z,100756.66
2023-05-05T17:22:35.144Z,100742.94
2023-05-05T17:25:01.684Z,100746.28
2023-05-05T17:27:28.498Z,100741.53
2023-05-05T17:29:55.135Z,100731.59
2023-05-05T17:32:22.289Z,100739.53
2023-05-05T17:39:30.962Z,100730.94
2023-05-05T17:41:57.578Z,100729.94
2023-05-05T17:44:24.122Z,100734.56
2023-05-05T17:46:50.731Z,100735.31
2023-05-05T17:49:17.642Z,100740.41
2023-05-05T17:51:44.223Z,100738.91
2023-05-05T17:54:10.827Z,100741.06
2023-05-05T17:56:37.952Z,100742.97
2023-05-05T17:59:05.516Z,100746.88
2023-05-05T18:01:32.182Z,100753.59
2023-05-05T18:03:59.198Z,100751.75
2023-05-05T18:06:25.992Z,100749.66
2023-05-05T18:08:52.825Z,100748.78
2023-05-05T18:11:21.169Z,100742.59
2023-05-05T18:13:47.703Z,100737.56
2023-05-05T18:16:14.652Z,100734.84
2023-05-05T18:18:41.736Z,100729.81
2023-05-05T18:21:11.936Z,100724.41
2023-05-05T18:23:40.290Z,100738.72
2023-05-05T18:26:07.215Z,100738.34
2023-05-05T18:28:34.043Z,100734.53
2023-05-05T18:31:01.036Z,100729.59
2023-05-05T18:33:27.591Z,100731.53
2023-05-05T18:35:55.163Z,100730.66
2023-05-05T18:38:22.436Z,100732.63
2023-05-05T18:40:49.269Z,100733.72
2023-05-05T18:43:16.394Z,100732.03
2023-05-05T18:45:43.010Z,100737.03
2023-05-05T18:48:09.795Z,100749.59
2023-05-05T18:50:36.715Z,100753.19
2023-05-05T18:53:04.034Z,100747.53
2023-05-05T18:55:30.575Z,100740.31
2023-05-05T18:57:57.780Z,100755.56
2023-05-05T19:00:24.495Z,100748.41
2023-05-05T19:02:52.409Z,100736.47
2023-05-05T19:05:19.647Z,100735.81
2023-05-05T19:07:49.561Z,100728.06
2023-05-05T19:10:16.286Z,100727.03
2023-05-05T19:12:42.850Z,100721.56
2023-05-05T19:15:09.841Z,100715.25
2023-05-05T19:17:36.631Z,100708.13
2023-05-05T19:20:03.799Z,100701.88
2023-05-05T19:22:31.027Z,100707.63
2023-05-05T19:24:57.731Z,100705.56
2023-05-05T19:27:25.228Z,100704.50
2023-05-05T19:29:52.682Z,100697.00
2023-05-05T19:32:21.044Z,100707.00
2023-05-05T19:34:48.676Z,100697.94
2023-05-05T19:37:15.740Z,100708.78
2023-05-05T19:39:44.471Z,100708.78
2023-05-05T19:42:11.545Z,100712.44
2023-05-05T19:44:38.066Z,100718.34
2023-05-05T19:47:06.062Z,100704.63
2023-05-05T19:49:33.341Z,100716.00
2023-05-05T19:52:00.358Z,100703.53
2023-05-05T19:54:27.878Z,100716.56
2023-05-05T19:56:55.412Z,100721.84
2023-05-05T19:59:23.883Z,100723.63
2023-05-05T20:01:50.606Z,100732.63
2023-05-05T20:04:17.688Z,100728.13
2023-05-05T20:06:44.316Z,100722.84
2023-05-05T20:09:11.296Z,100719.22
2023-05-05T20:11:38.183Z,100725.03
2023-05-05T20:14:05.247Z,100722.56
2023-05-05T20:16:32.349Z,100723.75
2023-05-05T20:18:59.055Z,100720.84
2023-05-05T20:21:26.109Z,100716.13
2023-05-05T20:23:54.485Z,100722.06
2023-05-05T20:26:21.997Z,100717.97
2023-05-05T20:28:48.761Z,100716.28
2023-05-05T20:31:17.272Z,100719.91
2023-05-05T20:33:45.031Z,100725.97
2023-05-05T20:36:11.670Z,100722.88
2023-05-05T20:38:38.688Z,100715.38
2023-05-05T20:41:06.195Z,100715.53
2023-05-05T20:43:32.818Z,100719.56
2023-05-05T20:45:59.473Z,100708.63
2023-05-05T20:48:25.987Z,100713.28
2023-05-05T20:50:52.528Z,100715.09
2023-05-05T20:53:20.832Z,100705.97
2023-05-05T20:55:47.378Z,100701.50
2023-05-05T20:58:13.936Z,100701.78
2023-05-05T21:00:40.651Z,100700.13
2023-05-05T21:03:07.999Z,100702.31
2023-05-05T21:05:35.868Z,100694.66
2023-05-05T21:08:02.569Z,100680.88
2023-05-05T21:10:29.241Z,100691.00
2023-05-05T21:12:56.079Z,100698.19
2023-05-05T21:15:22.854Z,100696.09
2023-05-05T21:17:49.446Z,100688.34
2023-05-05T21:20:16.904Z,100689.16
2023-05-05T21:22:43.754Z,100698.41
2023-05-05T21:25:16.312Z,100705.75
2023-05-05T21:27:42.948Z,100686.78
2023-05-05T21:30:11.347Z,100693.34
2023-05-05T21:32:39.330Z,100689.59
2023-05-05T21:35:08.540Z,100687.34
2023-05-05T21:37:37.647Z,100684.16
2023-05-05T21:40:05.827Z,100693.94
2023-05-05T21:42:32.433Z,100696.56
2023-05-05T21:44:58.984Z,100696.88
2023-05-05T21:47:27.173Z,100700.78
2023-05-05T21:49:53.752Z,100703.66
2023-05-05T21:52:20.329Z,100699.44
2023-05-05T21:54:47.168Z,100702.94
2023-05-05T21:57:13.718Z,100688.28
2023-05-05T21:59:41.162Z,100702.16
2023-05-05T22:02:07.822Z,100701.16
2023-05-05T22:04:34.403Z,100702.88
2023-05-05T22:07:19.481Z,100701.34
2023-05-05T22:10:04.692Z,100715.59
2023-05-05T22:12:31.761Z,100710.38
2023-05-05T22:14:58.336Z,100709.84
2023-05-05T22:17:25.032Z,100710.69
2023-05-05T22:19:51.559Z,100709.69
2023-05-05T22:22:21.023Z,100713.56
2023-05-05T22:24:47.544Z,100701.66
2023-05-05T22:27:14.111Z,100703.84
2023-05-05T22:29:40.811Z,100707.41
2023-05-05T22:32:07.512Z,100710.75
2023-05-05T22:34:35.577Z,100714.94
2023-05-05T22:37:02.099Z,100709.47
2023-05-05T22:39:28.971Z,100712.75
2023-05-05T22:41:55.963Z,100706.44
2023-05-05T22:44:22.507Z,100713.59
2023-05-05T22:46:49.885Z,100714.94
2023-05-05T22:49:16.637Z,100710.56
2023-05-05T22:51:43.264Z,100711.28
2023-05-05T22:54:09.908Z,100704.16
2023-05-05T22:56:37.451Z,100705.00
2023-05-05T22:59:05.395Z,100708.88
2023-05-05T23:01:35.042Z,100709.16
2023-05-05T23:04:01.913Z,100706.16
2023-05-05T23:06:28.914Z,100695.66
2023-05-05T23:08:55.560Z,100696.09
2023-05-05T23:11:22.209Z,100688.66
2023-05-05T23:13:48.743Z,100689.47
2023-05-05T23:16:15.659Z,100691.16
2023-05-05T23:18:42.232Z,100679.22
2023-05-05T23:21:10.092Z,100687.84
2023-05-05T23:23:36.664Z,100686.81
2023-05-05T23:26:03.259Z,100680.63
2023-05-05T23:28:30.889Z,100696.22
2023-05-05T23:30:57.475Z,100691.56
2023-05-05T23:33:24.161Z,100691.16
2023-05-05T23:35:50.881Z,100686.88
2023-05-05T23:38:17.471Z,100695.38
2023-05-05T23:40:44.015Z,100692.00
2023-05-05T23:43:11.949Z,100690.56
2023-05-05T23:45:40.446Z,100701.94
2023-05-05T23:48:07.149Z,100711.00
2023-05-05T23:50:34.595Z,100714.34
2023-05-05T23:53:01.189Z,100710.53
2023-05-05T23:55:27.781Z,100710.66
2023-05-05T23:57:54.380Z,100708.75
